GLTE48 YSNW-YWLM
Flight info
| Callsign | GLTE48 |
|---|---|
| Flight time | 1h 49m |
| Altitude | 5500 |
| Route | MSV DCT KADOM DCT MVI DCT RUTOS DCT MAKOR DCT NBB |
| Aircraft | C172/L-SFG/C |
Departure
| Time | 2026-05-01 09:34 |
|---|---|
| Airport | Naval Air Station Nowra - HMAS Albatross (YSNW) |
Arrival
| Time | 2026-05-01 11:23 |
|---|---|
| Airport | Newcastle Airport (YWLM) |
| Time | Latitude | Longitude | Altitude | Speed | Heading |
|---|---|---|---|---|---|
| 2026-05-01 09:04 | -34.94428 | 150.53509 | 353 ft | 0 kts | 332° |
| 2026-05-01 09:14 | -34.94435 | 150.53523 | 363 ft | 3 kts | 117° |
| 2026-05-01 09:15 | -34.94456 | 150.53524 | 372 ft | 3 kts | 129° |
| 2026-05-01 09:15 | -34.94486 | 150.53512 | 380 ft | 7 kts | 186° |
| 2026-05-01 09:15 | -34.94485 | 150.53491 | 380 ft | 2 kts | 217° |
| 2026-05-01 09:15 | -34.94485 | 150.53466 | 381 ft | 4 kts | 185° |
| 2026-05-01 09:16 | -34.94473 | 150.53421 | 380 ft | 4 kts | 144° |
| 2026-05-01 09:16 | -34.94462 | 150.53469 | 389 ft | 8 kts | 46° |
| 2026-05-01 09:16 | -34.94460 | 150.53474 | 384 ft | 2 kts | 49° |
| 2026-05-01 09:17 | -34.94473 | 150.53472 | 383 ft | 0 kts | 47° |
| 2026-05-01 09:17 | -34.94472 | 150.53468 | 382 ft | 0 kts | 43° |
| 2026-05-01 09:17 | -34.94458 | 150.53467 | 381 ft | 3 kts | 50° |
| 2026-05-01 09:18 | -34.94456 | 150.53462 | 380 ft | 1 kts | 39° |
| 2026-05-01 09:18 | -34.94443 | 150.53466 | 380 ft | 1 kts | 54° |
| 2026-05-01 09:19 | -34.94448 | 150.53484 | 381 ft | 0 kts | 52° |
| 2026-05-01 09:19 | -34.94447 | 150.53485 | 381 ft | 0 kts | 46° |
| 2026-05-01 09:19 | -34.94425 | 150.53468 | 381 ft | 6 kts | 25° |
| 2026-05-01 09:20 | -34.94407 | 150.53499 | 377 ft | 3 kts | 36° |
| 2026-05-01 09:20 | -34.94407 | 150.53514 | 379 ft | 0 kts | 35° |
| 2026-05-01 09:21 | -34.94392 | 150.53528 | 380 ft | 2 kts | 35° |
| 2026-05-01 09:21 | -34.94387 | 150.53538 | 379 ft | 1 kts | 35° |
| 2026-05-01 09:21 | -34.94384 | 150.53546 | 380 ft | 0 kts | 35° |
| 2026-05-01 09:22 | -34.94377 | 150.53530 | 379 ft | 4 kts | 35° |
| 2026-05-01 09:22 | -34.94361 | 150.53529 | 378 ft | 1 kts | 35° |
| 2026-05-01 09:23 | -34.94363 | 150.53534 | 377 ft | 1 kts | 35° |
| 2026-05-01 09:23 | -34.94346 | 150.53546 | 379 ft | 2 kts | 35° |
| 2026-05-01 09:24 | -34.94333 | 150.53580 | 378 ft | 2 kts | 35° |
| 2026-05-01 09:24 | -34.94337 | 150.53608 | 375 ft | 1 kts | 35° |
| 2026-05-01 09:24 | -34.94334 | 150.53622 | 373 ft | 4 kts | 77° |
| 2026-05-01 09:25 | -34.94430 | 150.53570 | 376 ft | 8 kts | 250° |
| 2026-05-01 09:25 | -34.94452 | 150.53510 | 379 ft | 2 kts | 229° |
| 2026-05-01 09:26 | -34.94450 | 150.53511 | 377 ft | 1 kts | 229° |
| 2026-05-01 09:26 | -34.94464 | 150.53491 | 385 ft | 4 kts | 10° |
| 2026-05-01 09:26 | -34.94455 | 150.53506 | 383 ft | 1 kts | 30° |
| 2026-05-01 09:27 | -34.94449 | 150.53517 | 379 ft | 1 kts | 47° |
| 2026-05-01 09:27 | -34.94499 | 150.53465 | 382 ft | 17 kts | 175° |
| 2026-05-01 09:27 | -34.94580 | 150.53405 | 380 ft | 13 kts | 175° |
| 2026-05-01 09:28 | -34.94653 | 150.53395 | 385 ft | 8 kts | 174° |
| 2026-05-01 09:28 | -34.94733 | 150.53384 | 390 ft | 11 kts | 242° |
| 2026-05-01 09:28 | -34.94749 | 150.53333 | 391 ft | 5 kts | 269° |
| 2026-05-01 09:28 | -34.94750 | 150.53327 | 390 ft | 1 kts | 268° |
| 2026-05-01 09:29 | -34.94689 | 150.53410 | 416 ft | 20 kts | 56° |
| 2026-05-01 09:29 | -34.94752 | 150.53465 | 364 ft | 5 kts | 300° |
| 2026-05-01 09:30 | -34.94748 | 150.53382 | 369 ft | 5 kts | 269° |
| 2026-05-01 09:30 | -34.94747 | 150.53343 | 366 ft | 0 kts | 269° |
| 2026-05-01 09:31 | -34.94747 | 150.53340 | 366 ft | 2 kts | 272° |
| 2026-05-01 09:32 | -34.94747 | 150.53319 | 367 ft | 0 kts | 266° |
| 2026-05-01 09:32 | -34.94747 | 150.53315 | 367 ft | 0 kts | 270° |
| 2026-05-01 09:32 | -34.94747 | 150.53310 | 368 ft | 0 kts | 269° |
| 2026-05-01 09:33 | -34.94744 | 150.53304 | 395 ft | 1 kts | 269° |
| 2026-05-01 09:33 | -34.94741 | 150.53269 | 447 ft | 15 kts | 268° |
| 2026-05-01 09:33 | -34.94287 | 150.53201 | 730 ft | 63 kts | 18° |
| 2026-05-01 09:34 | -34.93849 | 150.53488 | 826 ft | 83 kts | 47° |
| 2026-05-01 09:34 | -34.93463 | 150.53997 | 1106 ft | 81 kts | 49° |
| 2026-05-01 09:34 | -34.92723 | 150.55190 | 1383 ft | 98 kts | 55° |
| 2026-05-01 09:35 | -34.92347 | 150.55926 | 1499 ft | 102 kts | 58° |
| 2026-05-01 09:35 | -34.91637 | 150.57737 | 1351 ft | 126 kts | 68° |
| 2026-05-01 09:35 | -34.91503 | 150.58820 | 1333 ft | 130 kts | 88° |
| 2026-05-01 09:36 | -34.91609 | 150.59852 | 1504 ft | 123 kts | 92° |
| 2026-05-01 09:36 | -34.91741 | 150.60885 | 1446 ft | 123 kts | 92° |
| 2026-05-01 09:36 | -34.91890 | 150.61859 | 1510 ft | 118 kts | 94° |
| 2026-05-01 09:36 | -34.91775 | 150.62797 | 1389 ft | 118 kts | 44° |
| 2026-05-01 09:37 | -34.90997 | 150.63053 | 1338 ft | 123 kts | 357° |
| 2026-05-01 09:37 | -34.89293 | 150.62514 | 1272 ft | 107 kts | 352° |
| 2026-05-01 09:37 | -34.88487 | 150.62373 | 951 ft | 129 kts | 2° |
| 2026-05-01 09:38 | -34.87016 | 150.62529 | 1005 ft | 84 kts | 15° |
| 2026-05-01 09:38 | -34.86256 | 150.62594 | 794 ft | 123 kts | 7° |
| 2026-05-01 09:38 | -34.85405 | 150.62711 | 890 ft | 121 kts | 15° |
| 2026-05-01 09:39 | -34.83858 | 150.63565 | 928 ft | 131 kts | 36° |
| 2026-05-01 09:39 | -34.83087 | 150.64213 | 938 ft | 137 kts | 36° |
| 2026-05-01 09:39 | -34.82286 | 150.64899 | 939 ft | 143 kts | 36° |
| 2026-05-01 09:40 | -34.81742 | 150.65806 | 1231 ft | 134 kts | 70° |
| 2026-05-01 09:40 | -34.80948 | 150.67935 | 1124 ft | 152 kts | 33° |
| 2026-05-01 09:40 | -34.79953 | 150.68082 | 1228 ft | 155 kts | 345° |
| 2026-05-01 09:41 | -34.78919 | 150.67637 | 1232 ft | 153 kts | 351° |
| 2026-05-01 09:41 | -34.77843 | 150.66354 | 1685 ft | 159 kts | 225° |
| 2026-05-01 09:41 | -34.78869 | 150.66389 | 1587 ft | 160 kts | 130° |
| 2026-05-01 09:42 | -34.79030 | 150.67515 | 1760 ft | 138 kts | 59° |
| 2026-05-01 09:42 | -34.78206 | 150.68002 | 1556 ft | 139 kts | 7° |
| 2026-05-01 09:42 | -34.76222 | 150.67594 | 1333 ft | 151 kts | 332° |
| 2026-05-01 09:43 | -34.75099 | 150.65478 | 1588 ft | 158 kts | 292° |
| 2026-05-01 09:43 | -34.74793 | 150.64220 | 1804 ft | 157 kts | 292° |
| 2026-05-01 09:43 | -34.74465 | 150.62921 | 1889 ft | 157 kts | 290° |
| 2026-05-01 09:44 | -34.74035 | 150.60315 | 1689 ft | 160 kts | 281° |
| 2026-05-01 09:44 | -34.73840 | 150.59005 | 1539 ft | 162 kts | 292° |
| 2026-05-01 09:44 | -34.73351 | 150.57814 | 1460 ft | 149 kts | 302° |
| 2026-05-01 09:45 | -34.72927 | 150.56731 | 1392 ft | 131 kts | 300° |
| 2026-05-01 09:45 | -34.72108 | 150.55164 | 1525 ft | 103 kts | 324° |
| 2026-05-01 09:45 | -34.71537 | 150.54555 | 1413 ft | 114 kts | 327° |
| 2026-05-01 09:46 | -34.70907 | 150.53980 | 1507 ft | 108 kts | 332° |
| 2026-05-01 09:46 | -34.70337 | 150.53510 | 1753 ft | 99 kts | 329° |
| 2026-05-01 09:46 | -34.69836 | 150.53049 | 2015 ft | 85 kts | 336° |
| 2026-05-01 09:46 | -34.69400 | 150.52602 | 2162 ft | 76 kts | 327° |
| 2026-05-01 09:47 | -34.68962 | 150.52152 | 2191 ft | 95 kts | 330° |
| 2026-05-01 09:47 | -34.68439 | 150.51531 | 2228 ft | 110 kts | 326° |
| 2026-05-01 09:47 | -34.67819 | 150.51035 | 2487 ft | 98 kts | 333° |
| 2026-05-01 09:47 | -34.67272 | 150.50538 | 2550 ft | 89 kts | 339° |
| 2026-05-01 09:48 | -34.66773 | 150.50183 | 2696 ft | 85 kts | 337° |
| 2026-05-01 09:48 | -34.66230 | 150.49850 | 2677 ft | 87 kts | 340° |
| 2026-05-01 09:48 | -34.65672 | 150.49476 | 2700 ft | 97 kts | 338° |
| 2026-05-01 09:48 | -34.65020 | 150.49080 | 2670 ft | 106 kts | 341° |
| 2026-05-01 09:49 | -34.64308 | 150.48738 | 2720 ft | 113 kts | 344° |
| 2026-05-01 09:49 | -34.63554 | 150.48399 | 2626 ft | 119 kts | 343° |
| 2026-05-01 09:49 | -34.62754 | 150.48026 | 2571 ft | 119 kts | 343° |
| 2026-05-01 09:49 | -34.62018 | 150.47678 | 2798 ft | 105 kts | 350° |
| 2026-05-01 09:50 | -34.61343 | 150.47657 | 2881 ft | 90 kts | 20° |
| 2026-05-01 09:50 | -34.60967 | 150.48217 | 2920 ft | 95 kts | 66° |
| 2026-05-01 09:50 | -34.60669 | 150.48939 | 2967 ft | 97 kts | 59° |
| 2026-05-01 09:50 | -34.60351 | 150.49694 | 2956 ft | 103 kts | 58° |
| 2026-05-01 09:51 | -34.60005 | 150.50458 | 2945 ft | 98 kts | 54° |
| 2026-05-01 09:51 | -34.59430 | 150.50726 | 2888 ft | 105 kts | 341° |
| 2026-05-01 09:51 | -34.58870 | 150.50355 | 3110 ft | 76 kts | 352° |
| 2026-05-01 09:51 | -34.58276 | 150.50255 | 3131 ft | 100 kts | 0° |
| 2026-05-01 09:52 | -34.57459 | 150.50226 | 2919 ft | 128 kts | 1° |
| 2026-05-01 09:52 | -34.56661 | 150.50217 | 3157 ft | 105 kts | 4° |
| 2026-05-01 09:52 | -34.56027 | 150.50397 | 3269 ft | 96 kts | 45° |
| 2026-05-01 09:52 | -34.55993 | 150.51218 | 3271 ft | 114 kts | 118° |
| 2026-05-01 09:53 | -34.56773 | 150.51481 | 3273 ft | 132 kts | 199° |
| 2026-05-01 09:53 | -34.57208 | 150.50560 | 3151 ft | 145 kts | 281° |
| 2026-05-01 09:53 | -34.56659 | 150.49621 | 3046 ft | 138 kts | 332° |
| 2026-05-01 09:53 | -34.55811 | 150.49011 | 2930 ft | 146 kts | 338° |
| 2026-05-01 09:54 | -34.54938 | 150.48447 | 3008 ft | 138 kts | 337° |
| 2026-05-01 09:54 | -34.54066 | 150.47942 | 3059 ft | 135 kts | 341° |
| 2026-05-01 09:54 | -34.53207 | 150.47487 | 3095 ft | 136 kts | 341° |
| 2026-05-01 09:54 | -34.52340 | 150.46918 | 3046 ft | 144 kts | 334° |
| 2026-05-01 09:55 | -34.51494 | 150.46319 | 3070 ft | 135 kts | 333° |
| 2026-05-01 09:55 | -34.50748 | 150.45792 | 3142 ft | 113 kts | 336° |
| 2026-05-01 09:55 | -34.50110 | 150.45319 | 3327 ft | 104 kts | 337° |
| 2026-05-01 09:55 | -34.49531 | 150.44784 | 3504 ft | 110 kts | 315° |
| 2026-05-01 09:56 | -34.49074 | 150.44036 | 3583 ft | 110 kts | 315° |
| 2026-05-01 09:56 | -34.48471 | 150.43516 | 3628 ft | 104 kts | 341° |
| 2026-05-01 09:56 | -34.47780 | 150.43299 | 3643 ft | 101 kts | 354° |
| 2026-05-01 09:56 | -34.47110 | 150.43370 | 3648 ft | 97 kts | 32° |
| 2026-05-01 09:57 | -34.46721 | 150.44022 | 3654 ft | 97 kts | 60° |
| 2026-05-01 09:57 | -34.46469 | 150.44789 | 3653 ft | 98 kts | 66° |
| 2026-05-01 09:57 | -34.46256 | 150.45583 | 3649 ft | 100 kts | 70° |
| 2026-05-01 09:57 | -34.46069 | 150.46397 | 3652 ft | 100 kts | 70° |
| 2026-05-01 09:58 | -34.45885 | 150.47211 | 3654 ft | 100 kts | 70° |
| 2026-05-01 09:58 | -34.45701 | 150.48021 | 3654 ft | 100 kts | 70° |
| 2026-05-01 09:58 | -34.45505 | 150.48827 | 3658 ft | 99 kts | 66° |
| 2026-05-01 09:58 | -34.45268 | 150.49607 | 3656 ft | 99 kts | 65° |
| 2026-05-01 09:59 | -34.45267 | 150.50447 | 3655 ft | 107 kts | 108° |
| 2026-05-01 09:59 | -34.45836 | 150.51060 | 3656 ft | 117 kts | 155° |
| 2026-05-01 09:59 | -34.46667 | 150.51022 | 3658 ft | 123 kts | 202° |
| 2026-05-01 09:59 | -34.47289 | 150.50327 | 3660 ft | 123 kts | 244° |
| 2026-05-01 10:00 | -34.47401 | 150.49349 | 3664 ft | 115 kts | 291° |
| 2026-05-01 10:00 | -34.46946 | 150.48639 | 3661 ft | 104 kts | 340° |
| 2026-05-01 10:00 | -34.46264 | 150.48540 | 3660 ft | 98 kts | 7° |
| 2026-05-01 10:00 | -34.45684 | 150.48918 | 3661 ft | 97 kts | 50° |
| 2026-05-01 10:01 | -34.45571 | 150.49726 | 3659 ft | 105 kts | 100° |
| 2026-05-01 10:01 | -34.46057 | 150.50421 | 3660 ft | 116 kts | 147° |
| 2026-05-01 10:01 | -34.46872 | 150.50519 | 3658 ft | 123 kts | 193° |
| 2026-05-01 10:01 | -34.47558 | 150.49915 | 3660 ft | 124 kts | 239° |
| 2026-05-01 10:02 | -34.47729 | 150.48941 | 3658 ft | 117 kts | 288° |
| 2026-05-01 10:02 | -34.47331 | 150.48154 | 3660 ft | 108 kts | 323° |
| 2026-05-01 10:02 | -34.46764 | 150.47555 | 3657 ft | 108 kts | 327° |
| 2026-05-01 10:02 | -34.46189 | 150.46968 | 3655 ft | 107 kts | 327° |
| 2026-05-01 10:03 | -34.45590 | 150.46440 | 3655 ft | 105 kts | 334° |
| 2026-05-01 10:03 | -34.44917 | 150.46175 | 3657 ft | 101 kts | 355° |
| 2026-05-01 10:03 | -34.44222 | 150.46050 | 3653 ft | 101 kts | 357° |
| 2026-05-01 10:03 | -34.43523 | 150.45922 | 3654 ft | 101 kts | 356° |
| 2026-05-01 10:04 | -34.42819 | 150.45827 | 3655 ft | 100 kts | 11° |
| 2026-05-01 10:04 | -34.42284 | 150.46281 | 3653 ft | 97 kts | 61° |
| 2026-05-01 10:04 | -34.42290 | 150.47104 | 3654 ft | 106 kts | 108° |
| 2026-05-01 10:04 | -34.42784 | 150.47806 | 3653 ft | 112 kts | 128° |
| 2026-05-01 10:05 | -34.43412 | 150.48394 | 3653 ft | 116 kts | 141° |
| 2026-05-01 10:05 | -34.44048 | 150.48981 | 3650 ft | 114 kts | 134° |
| 2026-05-01 10:05 | -34.44667 | 150.49586 | 3648 ft | 114 kts | 134° |
| 2026-05-01 10:05 | -34.45198 | 150.50278 | 3649 ft | 110 kts | 116° |
| 2026-05-01 10:06 | -34.45616 | 150.51049 | 3647 ft | 109 kts | 115° |
| 2026-05-01 10:06 | -34.46183 | 150.51693 | 3649 ft | 115 kts | 142° |
| 2026-05-01 10:06 | -34.46886 | 150.52167 | 3643 ft | 117 kts | 147° |
| 2026-05-01 10:06 | -34.47716 | 150.52216 | 3649 ft | 124 kts | 195° |
| 2026-05-01 10:07 | -34.48387 | 150.51581 | 3644 ft | 124 kts | 241° |
| 2026-05-01 10:07 | -34.48535 | 150.50602 | 3638 ft | 116 kts | 288° |
| 2026-05-01 10:07 | -34.48051 | 150.49936 | 3561 ft | 103 kts | 350° |
| 2026-05-01 10:07 | -34.47331 | 150.50000 | 3344 ft | 112 kts | 17° |
| 2026-05-01 10:08 | -34.45815 | 150.50758 | 2747 ft | 126 kts | 16° |
| 2026-05-01 10:08 | -34.44943 | 150.50635 | 2341 ft | 126 kts | 337° |
| 2026-05-01 10:08 | -34.44497 | 150.49866 | 2241 ft | 112 kts | 289° |
| 2026-05-01 10:09 | -34.44529 | 150.49064 | 2442 ft | 79 kts | 266° |
| 2026-05-01 10:09 | -34.44868 | 150.48528 | 2280 ft | 81 kts | 184° |
| 2026-05-01 10:09 | -34.45215 | 150.48640 | 2156 ft | 42 kts | 105° |
| 2026-05-01 10:09 | -34.45201 | 150.48951 | 2001 ft | 28 kts | 75° |
| 2026-05-01 10:10 | -34.45162 | 150.49129 | 1911 ft | 11 kts | 72° |
| 2026-05-01 10:10 | -34.45147 | 150.49207 | 1875 ft | 5 kts | 73° |
| 2026-05-01 10:10 | -34.45137 | 150.49234 | 1873 ft | 0 kts | 73° |
| 2026-05-01 10:15 | -34.45103 | 150.49355 | 1920 ft | 34 kts | 70° |
| 2026-05-01 10:15 | -34.44961 | 150.49084 | 2089 ft | 71 kts | 254° |
| 2026-05-01 10:15 | -34.45148 | 150.48519 | 2201 ft | 87 kts | 202° |
| 2026-05-01 10:15 | -34.45296 | 150.48942 | 2090 ft | 87 kts | 56° |
| 2026-05-01 10:16 | -34.44788 | 150.49322 | 2231 ft | 86 kts | 346° |
| 2026-05-01 10:16 | -34.44497 | 150.48798 | 2450 ft | 77 kts | 308° |
| 2026-05-01 10:16 | -34.43813 | 150.47468 | 2599 ft | 107 kts | 313° |
| 2026-05-01 10:17 | -34.43332 | 150.46634 | 2428 ft | 136 kts | 306° |
| 2026-05-01 10:17 | -34.42942 | 150.44339 | 2410 ft | 132 kts | 306° |
| 2026-05-01 10:17 | -34.42266 | 150.43705 | 2437 ft | 124 kts | 343° |
| 2026-05-01 10:18 | -34.40900 | 150.42481 | 2498 ft | 113 kts | 322° |
| 2026-05-01 10:18 | -34.40172 | 150.42181 | 2394 ft | 124 kts | 2° |
| 2026-05-01 10:18 | -34.39200 | 150.42167 | 2344 ft | 153 kts | 0° |
| 2026-05-01 10:19 | -34.38151 | 150.41762 | 2317 ft | 164 kts | 334° |
| 2026-05-01 10:19 | -34.37222 | 150.41044 | 2413 ft | 156 kts | 335° |
| 2026-05-01 10:19 | -34.36203 | 150.40536 | 2224 ft | 163 kts | 345° |
| 2026-05-01 10:20 | -34.34042 | 150.39876 | 1773 ft | 166 kts | 349° |
| 2026-05-01 10:20 | -34.32922 | 150.39416 | 1394 ft | 169 kts | 340° |
| 2026-05-01 10:20 | -34.31891 | 150.38841 | 1474 ft | 149 kts | 335° |
| 2026-05-01 10:20 | -34.31009 | 150.38244 | 1568 ft | 146 kts | 334° |
| 2026-05-01 10:21 | -34.30137 | 150.37502 | 1410 ft | 156 kts | 324° |
| 2026-05-01 10:21 | -34.28899 | 150.35632 | 1841 ft | 125 kts | 322° |
| 2026-05-01 10:21 | -34.28100 | 150.35333 | 1869 ft | 126 kts | 359° |
| 2026-05-01 10:22 | -34.26282 | 150.35390 | 1838 ft | 132 kts | 14° |
| 2026-05-01 10:22 | -34.24291 | 150.35585 | 1585 ft | 150 kts | 358° |
| 2026-05-01 10:23 | -34.23219 | 150.35480 | 1440 ft | 152 kts | 0° |
| 2026-05-01 10:23 | -34.21190 | 150.35812 | 1160 ft | 164 kts | 18° |
| 2026-05-01 10:23 | -34.20149 | 150.36340 | 1106 ft | 156 kts | 26° |
| 2026-05-01 10:24 | -34.18407 | 150.37658 | 1100 ft | 149 kts | 29° |
| 2026-05-01 10:24 | -34.16724 | 150.38585 | 1513 ft | 132 kts | 25° |
| 2026-05-01 10:25 | -34.15091 | 150.39762 | 1503 ft | 145 kts | 51° |
| 2026-05-01 10:25 | -34.14411 | 150.42003 | 1610 ft | 144 kts | 74° |
| 2026-05-01 10:26 | -34.14143 | 150.43262 | 1282 ft | 159 kts | 72° |
| 2026-05-01 10:26 | -34.13747 | 150.44491 | 1267 ft | 157 kts | 52° |
| 2026-05-01 10:26 | -34.11838 | 150.44713 | 1481 ft | 164 kts | 339° |
| 2026-05-01 10:27 | -34.09732 | 150.43607 | 1478 ft | 161 kts | 338° |
| 2026-05-01 10:27 | -34.07698 | 150.42491 | 1470 ft | 159 kts | 340° |
| 2026-05-01 10:28 | -34.06675 | 150.41974 | 1473 ft | 158 kts | 343° |
| 2026-05-01 10:28 | -34.04521 | 150.41569 | 1481 ft | 156 kts | 4° |
| 2026-05-01 10:28 | -34.03451 | 150.41797 | 1484 ft | 155 kts | 13° |
| 2026-05-01 10:29 | -34.01331 | 150.42359 | 1486 ft | 156 kts | 13° |
| 2026-05-01 10:29 | -34.00238 | 150.42373 | 1511 ft | 156 kts | 352° |
| 2026-05-01 10:30 | -33.98077 | 150.41877 | 1481 ft | 153 kts | 5° |
| 2026-05-01 10:30 | -33.96061 | 150.42644 | 1467 ft | 156 kts | 22° |
| 2026-05-01 10:31 | -33.93936 | 150.42491 | 1478 ft | 162 kts | 334° |
| 2026-05-01 10:31 | -33.92749 | 150.40235 | 1425 ft | 173 kts | 294° |
| 2026-05-01 10:32 | -33.91224 | 150.38158 | 1476 ft | 165 kts | 320° |
| 2026-05-01 10:32 | -33.90361 | 150.37241 | 1635 ft | 165 kts | 327° |
| 2026-05-01 10:32 | -33.88452 | 150.35691 | 1972 ft | 165 kts | 329° |
| 2026-05-01 10:33 | -33.86494 | 150.34221 | 2147 ft | 166 kts | 337° |
| 2026-05-01 10:33 | -33.84354 | 150.33226 | 2187 ft | 164 kts | 343° |
| 2026-05-01 10:34 | -33.83313 | 150.32654 | 2193 ft | 166 kts | 332° |
| 2026-05-01 10:34 | -33.82328 | 150.31927 | 2192 ft | 166 kts | 333° |
| 2026-05-01 10:34 | -33.81321 | 150.31240 | 2191 ft | 166 kts | 334° |
| 2026-05-01 10:35 | -33.79300 | 150.29877 | 2185 ft | 166 kts | 335° |
| 2026-05-01 10:35 | -33.78229 | 150.29393 | 2286 ft | 163 kts | 349° |
| 2026-05-01 10:35 | -33.77118 | 150.29155 | 2416 ft | 161 kts | 358° |
| 2026-05-01 10:35 | -33.76020 | 150.29044 | 2621 ft | 150 kts | 357° |
| 2026-05-01 10:36 | -33.74275 | 150.28687 | 2897 ft | 126 kts | 4° |
| 2026-05-01 10:36 | -33.73338 | 150.28653 | 3400 ft | 129 kts | 6° |
| 2026-05-01 10:36 | -33.72402 | 150.28703 | 3470 ft | 142 kts | 2° |
| 2026-05-01 10:37 | -33.71500 | 150.28684 | 3632 ft | 121 kts | 5° |
| 2026-05-01 10:37 | -33.69835 | 150.28543 | 3856 ft | 110 kts | 358° |
| 2026-05-01 10:37 | -33.68976 | 150.28431 | 3826 ft | 140 kts | 1° |
| 2026-05-01 10:38 | -33.67974 | 150.28293 | 3950 ft | 148 kts | 357° |
| 2026-05-01 10:38 | -33.66933 | 150.28149 | 4126 ft | 152 kts | 358° |
| 2026-05-01 10:38 | -33.65875 | 150.28009 | 4285 ft | 154 kts | 358° |
| 2026-05-01 10:38 | -33.64798 | 150.27868 | 4438 ft | 155 kts | 358° |
| 2026-05-01 10:39 | -33.63726 | 150.27700 | 4624 ft | 155 kts | 354° |
| 2026-05-01 10:39 | -33.62662 | 150.27464 | 4805 ft | 154 kts | 354° |
| 2026-05-01 10:39 | -33.61608 | 150.27231 | 4967 ft | 154 kts | 354° |
| 2026-05-01 10:39 | -33.60558 | 150.26999 | 5158 ft | 152 kts | 354° |
| 2026-05-01 10:40 | -33.59512 | 150.26782 | 5341 ft | 151 kts | 356° |
| 2026-05-01 10:40 | -33.58526 | 150.27130 | 5394 ft | 152 kts | 38° |
| 2026-05-01 10:40 | -33.57791 | 150.28033 | 5457 ft | 151 kts | 47° |
| 2026-05-01 10:40 | -33.57102 | 150.28986 | 5484 ft | 151 kts | 48° |
| 2026-05-01 10:41 | -33.56402 | 150.29934 | 5495 ft | 152 kts | 45° |
| 2026-05-01 10:41 | -33.55628 | 150.30828 | 5485 ft | 157 kts | 44° |
| 2026-05-01 10:41 | -33.54008 | 150.32666 | 5497 ft | 161 kts | 43° |
| 2026-05-01 10:42 | -33.53195 | 150.33595 | 5500 ft | 161 kts | 43° |
| 2026-05-01 10:42 | -33.52388 | 150.34526 | 5504 ft | 161 kts | 43° |
| 2026-05-01 10:42 | -33.51582 | 150.35456 | 5503 ft | 160 kts | 44° |
| 2026-05-01 10:42 | -33.50777 | 150.36381 | 5501 ft | 160 kts | 44° |
| 2026-05-01 10:43 | -33.49972 | 150.37306 | 5492 ft | 160 kts | 44° |
| 2026-05-01 10:43 | -33.49171 | 150.38231 | 5482 ft | 159 kts | 44° |
| 2026-05-01 10:43 | -33.48373 | 150.39152 | 5477 ft | 159 kts | 43° |
| 2026-05-01 10:43 | -33.47570 | 150.40074 | 5476 ft | 160 kts | 43° |
| 2026-05-01 10:44 | -33.46764 | 150.40998 | 5472 ft | 161 kts | 44° |
| 2026-05-01 10:44 | -33.45955 | 150.41928 | 5471 ft | 161 kts | 44° |
| 2026-05-01 10:44 | -33.45142 | 150.42861 | 5471 ft | 161 kts | 43° |
| 2026-05-01 10:44 | -33.44331 | 150.43790 | 5471 ft | 160 kts | 44° |
| 2026-05-01 10:45 | -33.43524 | 150.44720 | 5470 ft | 160 kts | 44° |
| 2026-05-01 10:45 | -33.42715 | 150.45651 | 5469 ft | 160 kts | 44° |
| 2026-05-01 10:45 | -33.41911 | 150.46578 | 5470 ft | 160 kts | 43° |
| 2026-05-01 10:45 | -33.41107 | 150.47502 | 5471 ft | 159 kts | 44° |
| 2026-05-01 10:46 | -33.40307 | 150.48422 | 5470 ft | 159 kts | 44° |
| 2026-05-01 10:46 | -33.39509 | 150.49341 | 5472 ft | 159 kts | 44° |
| 2026-05-01 10:46 | -33.38708 | 150.50261 | 5474 ft | 159 kts | 43° |
| 2026-05-01 10:46 | -33.37908 | 150.51182 | 5476 ft | 159 kts | 44° |
| 2026-05-01 10:47 | -33.37104 | 150.52108 | 5476 ft | 160 kts | 44° |
| 2026-05-01 10:47 | -33.36299 | 150.53033 | 5476 ft | 160 kts | 44° |
| 2026-05-01 10:47 | -33.35494 | 150.53960 | 5475 ft | 160 kts | 44° |
| 2026-05-01 10:47 | -33.34694 | 150.54886 | 5472 ft | 160 kts | 44° |
| 2026-05-01 10:48 | -33.33934 | 150.55857 | 5469 ft | 160 kts | 47° |
| 2026-05-01 10:48 | -33.33183 | 150.56840 | 5468 ft | 160 kts | 47° |
| 2026-05-01 10:48 | -33.32430 | 150.57823 | 5468 ft | 160 kts | 47° |
| 2026-05-01 10:48 | -33.31680 | 150.58808 | 5466 ft | 160 kts | 49° |
| 2026-05-01 10:49 | -33.31023 | 150.59881 | 5460 ft | 160 kts | 54° |
| 2026-05-01 10:49 | -33.30391 | 150.60972 | 5461 ft | 160 kts | 54° |
| 2026-05-01 10:49 | -33.29759 | 150.62064 | 5460 ft | 160 kts | 54° |
| 2026-05-01 10:49 | -33.29121 | 150.63162 | 5459 ft | 160 kts | 54° |
| 2026-05-01 10:50 | -33.28481 | 150.64254 | 5425 ft | 161 kts | 53° |
| 2026-05-01 10:50 | -33.27839 | 150.65302 | 5491 ft | 157 kts | 54° |
| 2026-05-01 10:50 | -33.27170 | 150.66436 | 4489 ft | 187 kts | 49° |
| 2026-05-01 10:50 | -33.26371 | 150.67618 | 3388 ft | 184 kts | 50° |
| 2026-05-01 10:51 | -33.25543 | 150.68755 | 2331 ft | 182 kts | 56° |
| 2026-05-01 10:51 | -33.24922 | 150.69948 | 1834 ft | 161 kts | 62° |
| 2026-05-01 10:51 | -33.24396 | 150.71059 | 1533 ft | 148 kts | 64° |
| 2026-05-01 10:51 | -33.24001 | 150.72107 | 1632 ft | 138 kts | 71° |
| 2026-05-01 10:52 | -33.23656 | 150.73180 | 1664 ft | 137 kts | 68° |
| 2026-05-01 10:52 | -33.23317 | 150.74299 | 1587 ft | 143 kts | 70° |
| 2026-05-01 10:52 | -33.23036 | 150.75425 | 1677 ft | 136 kts | 76° |
| 2026-05-01 10:52 | -33.22781 | 150.76483 | 1762 ft | 136 kts | 70° |
| 2026-05-01 10:53 | -33.22443 | 150.77563 | 1737 ft | 140 kts | 72° |
| 2026-05-01 10:53 | -33.22194 | 150.78743 | 1467 ft | 156 kts | 75° |
| 2026-05-01 10:53 | -33.21946 | 150.79894 | 1832 ft | 130 kts | 77° |
| 2026-05-01 10:53 | -33.21776 | 150.80917 | 1963 ft | 129 kts | 74° |
| 2026-05-01 10:54 | -33.21380 | 150.81980 | 1676 ft | 150 kts | 58° |
| 2026-05-01 10:54 | -33.20840 | 150.83020 | 1781 ft | 137 kts | 61° |
| 2026-05-01 10:54 | -33.20478 | 150.84103 | 1666 ft | 145 kts | 73° |
| 2026-05-01 10:54 | -33.20184 | 150.85320 | 1356 ft | 159 kts | 71° |
| 2026-05-01 10:55 | -33.19868 | 150.86600 | 1219 ft | 157 kts | 76° |
| 2026-05-01 10:55 | -33.19669 | 150.87879 | 1123 ft | 157 kts | 79° |
| 2026-05-01 10:55 | -33.19240 | 150.89014 | 1219 ft | 148 kts | 56° |
| 2026-05-01 10:55 | -33.18682 | 150.90015 | 1340 ft | 140 kts | 60° |
| 2026-05-01 10:56 | -33.18195 | 150.91046 | 1286 ft | 146 kts | 62° |
| 2026-05-01 10:56 | -33.17709 | 150.92145 | 1183 ft | 152 kts | 63° |
| 2026-05-01 10:56 | -33.17272 | 150.93240 | 1287 ft | 142 kts | 66° |
| 2026-05-01 10:56 | -33.16900 | 150.94369 | 1197 ft | 148 kts | 71° |
| 2026-05-01 10:57 | -33.16641 | 150.95545 | 1184 ft | 150 kts | 76° |
| 2026-05-01 10:57 | -33.16415 | 150.96703 | 1534 ft | 125 kts | 76° |
| 2026-05-01 10:57 | -33.16285 | 150.97667 | 1643 ft | 131 kts | 86° |
| 2026-05-01 10:57 | -33.16246 | 150.98805 | 1485 ft | 145 kts | 81° |
| 2026-05-01 10:58 | -33.15838 | 151.00016 | 1094 ft | 161 kts | 64° |
| 2026-05-01 10:58 | -33.15392 | 151.01206 | 1072 ft | 155 kts | 67° |
| 2026-05-01 10:58 | -33.15009 | 151.02361 | 1157 ft | 146 kts | 71° |
| 2026-05-01 10:58 | -33.14731 | 151.03509 | 1230 ft | 142 kts | 76° |
| 2026-05-01 10:59 | -33.14510 | 151.04652 | 1283 ft | 143 kts | 82° |
| 2026-05-01 10:59 | -33.14727 | 151.05844 | 1155 ft | 155 kts | 107° |
| 2026-05-01 10:59 | -33.14992 | 151.07065 | 1230 ft | 146 kts | 96° |
| 2026-05-01 10:59 | -33.15098 | 151.08219 | 1391 ft | 137 kts | 95° |
| 2026-05-01 11:00 | -33.15247 | 151.09447 | 1069 ft | 161 kts | 99° |
| 2026-05-01 11:00 | -33.15510 | 151.10756 | 979 ft | 164 kts | 103° |
| 2026-05-01 11:00 | -33.15830 | 151.12040 | 1059 ft | 155 kts | 103° |
| 2026-05-01 11:00 | -33.16170 | 151.13254 | 1116 ft | 154 kts | 106° |
| 2026-05-01 11:01 | -33.16506 | 151.14476 | 1087 ft | 158 kts | 104° |
| 2026-05-01 11:01 | -33.16800 | 151.15701 | 1250 ft | 149 kts | 104° |
| 2026-05-01 11:01 | -33.17124 | 151.16886 | 1299 ft | 151 kts | 104° |
| 2026-05-01 11:01 | -33.17427 | 151.18091 | 1335 ft | 151 kts | 102° |
| 2026-05-01 11:02 | -33.17695 | 151.19324 | 1272 ft | 156 kts | 101° |
| 2026-05-01 11:02 | -33.17979 | 151.20562 | 1359 ft | 150 kts | 103° |
| 2026-05-01 11:02 | -33.18265 | 151.21794 | 1263 ft | 156 kts | 98° |
| 2026-05-01 11:02 | -33.18426 | 151.23077 | 1226 ft | 158 kts | 96° |
| 2026-05-01 11:03 | -33.18610 | 151.24381 | 1172 ft | 158 kts | 94° |
| 2026-05-01 11:03 | -33.18719 | 151.25693 | 1072 ft | 163 kts | 94° |
| 2026-05-01 11:03 | -33.18906 | 151.27047 | 864 ft | 172 kts | 100° |
| 2026-05-01 11:03 | -33.19172 | 151.28464 | 710 ft | 172 kts | 100° |
| 2026-05-01 11:04 | -33.19433 | 151.29776 | 919 ft | 159 kts | 102° |
| 2026-05-01 11:04 | -33.19753 | 151.31045 | 969 ft | 159 kts | 105° |
| 2026-05-01 11:04 | -33.20087 | 151.32273 | 970 ft | 159 kts | 103° |
| 2026-05-01 11:04 | -33.20403 | 151.33584 | 871 ft | 164 kts | 102° |
| 2026-05-01 11:05 | -33.20663 | 151.34895 | 822 ft | 163 kts | 99° |
| 2026-05-01 11:05 | -33.20992 | 151.36231 | 678 ft | 171 kts | 114° |
| 2026-05-01 11:05 | -33.21673 | 151.37422 | 541 ft | 172 kts | 108° |
| 2026-05-01 11:05 | -33.21971 | 151.38799 | 469 ft | 169 kts | 101° |
| 2026-05-01 11:06 | -33.22272 | 151.40135 | 513 ft | 164 kts | 103° |
| 2026-05-01 11:06 | -33.22629 | 151.41455 | 433 ft | 166 kts | 105° |
| 2026-05-01 11:06 | -33.23007 | 151.42787 | 248 ft | 172 kts | 105° |
| 2026-05-01 11:07 | -33.23573 | 151.45442 | 378 ft | 158 kts | 92° |
| 2026-05-01 11:07 | -33.23503 | 151.46733 | 398 ft | 155 kts | 74° |
| 2026-05-01 11:07 | -33.23228 | 151.47964 | 468 ft | 154 kts | 75° |
| 2026-05-01 11:07 | -33.23048 | 151.49140 | 556 ft | 133 kts | 79° |
| 2026-05-01 11:08 | -33.22959 | 151.50194 | 472 ft | 126 kts | 82° |
| 2026-05-01 11:08 | -33.22943 | 151.51269 | 442 ft | 134 kts | 88° |
| 2026-05-01 11:08 | -33.22959 | 151.53638 | 340 ft | 161 kts | 87° |
| 2026-05-01 11:09 | -33.22945 | 151.54991 | 476 ft | 158 kts | 84° |
| 2026-05-01 11:09 | -33.22897 | 151.56300 | 532 ft | 162 kts | 85° |
| 2026-05-01 11:09 | -33.22891 | 151.57640 | 758 ft | 151 kts | 86° |
| 2026-05-01 11:10 | -33.21882 | 151.59958 | 667 ft | 156 kts | 52° |
| 2026-05-01 11:10 | -33.21251 | 151.60959 | 891 ft | 150 kts | 54° |
| 2026-05-01 11:10 | -33.20538 | 151.61967 | 726 ft | 163 kts | 46° |
| 2026-05-01 11:10 | -33.19585 | 151.62762 | 565 ft | 169 kts | 25° |
| 2026-05-01 11:11 | -33.18477 | 151.63078 | 592 ft | 168 kts | 14° |
| 2026-05-01 11:11 | -33.17311 | 151.63361 | 424 ft | 173 kts | 12° |
| 2026-05-01 11:11 | -33.16149 | 151.63532 | 514 ft | 163 kts | 13° |
| 2026-05-01 11:11 | -33.15040 | 151.63963 | 368 ft | 168 kts | 21° |
| 2026-05-01 11:12 | -33.13964 | 151.64279 | 372 ft | 168 kts | 20° |
| 2026-05-01 11:12 | -33.12853 | 151.64819 | 187 ft | 169 kts | 24° |
| 2026-05-01 11:12 | -33.11688 | 151.64987 | 169 ft | 165 kts | 8° |
| 2026-05-01 11:12 | -33.10616 | 151.65322 | 204 ft | 159 kts | 25° |
| 2026-05-01 11:13 | -33.09773 | 151.66041 | 637 ft | 133 kts | 40° |
| 2026-05-01 11:13 | -33.08957 | 151.66423 | 812 ft | 144 kts | 13° |
| 2026-05-01 11:13 | -33.07827 | 151.66189 | 379 ft | 167 kts | 343° |
| 2026-05-01 11:13 | -33.06841 | 151.66094 | 714 ft | 148 kts | 21° |
| 2026-05-01 11:14 | -33.05960 | 151.66852 | 536 ft | 159 kts | 40° |
| 2026-05-01 11:14 | -33.05143 | 151.67654 | 684 ft | 151 kts | 41° |
| 2026-05-01 11:14 | -33.04296 | 151.68538 | 215 ft | 171 kts | 39° |
| 2026-05-01 11:14 | -33.03590 | 151.69555 | 460 ft | 152 kts | 56° |
| 2026-05-01 11:15 | -33.03077 | 151.70559 | 790 ft | 135 kts | 58° |
| 2026-05-01 11:15 | -33.02601 | 151.71518 | 871 ft | 135 kts | 58° |
| 2026-05-01 11:15 | -33.02105 | 151.72423 | 1136 ft | 122 kts | 52° |
| 2026-05-01 11:15 | -33.01334 | 151.72933 | 1167 ft | 134 kts | 20° |
| 2026-05-01 11:16 | -33.00466 | 151.73213 | 1290 ft | 132 kts | 23° |
| 2026-05-01 11:16 | -32.99622 | 151.73695 | 1267 ft | 138 kts | 31° |
| 2026-05-01 11:16 | -32.98764 | 151.74308 | 1081 ft | 148 kts | 33° |
| 2026-05-01 11:16 | -32.97883 | 151.74947 | 1098 ft | 148 kts | 34° |
| 2026-05-01 11:17 | -32.97021 | 151.75607 | 1136 ft | 148 kts | 36° |
| 2026-05-01 11:17 | -32.96188 | 151.76284 | 1223 ft | 146 kts | 37° |
| 2026-05-01 11:17 | -32.95365 | 151.76992 | 1266 ft | 147 kts | 39° |
| 2026-05-01 11:17 | -32.94513 | 151.77760 | 1101 ft | 157 kts | 38° |
| 2026-05-01 11:18 | -32.93634 | 151.78521 | 1112 ft | 153 kts | 37° |
| 2026-05-01 11:18 | -32.92749 | 151.79114 | 1452 ft | 132 kts | 26° |
| 2026-05-01 11:18 | -32.91849 | 151.79519 | 1273 ft | 155 kts | 24° |
| 2026-05-01 11:18 | -32.90723 | 151.80034 | 439 ft | 179 kts | 18° |
| 2026-05-01 11:19 | -32.89658 | 151.80321 | 839 ft | 134 kts | 14° |
| 2026-05-01 11:19 | -32.88799 | 151.80636 | 770 ft | 133 kts | 27° |
| 2026-05-01 11:19 | -32.87973 | 151.81214 | 570 ft | 134 kts | 38° |
| 2026-05-01 11:19 | -32.87334 | 151.81995 | 491 ft | 131 kts | 56° |
| 2026-05-01 11:20 | -32.86816 | 151.82884 | 448 ft | 129 kts | 56° |
| 2026-05-01 11:20 | -32.86348 | 151.83739 | 518 ft | 122 kts | 60° |
| 2026-05-01 11:20 | -32.85853 | 151.84669 | 330 ft | 121 kts | 56° |
| 2026-05-01 11:20 | -32.85475 | 151.85301 | 605 ft | 88 kts | 54° |
| 2026-05-01 11:21 | -32.84980 | 151.85935 | 393 ft | 118 kts | 43° |
| 2026-05-01 11:21 | -32.84391 | 151.86547 | 558 ft | 102 kts | 43° |
| 2026-05-01 11:21 | -32.83816 | 151.87131 | 563 ft | 118 kts | 38° |
| 2026-05-01 11:21 | -32.83048 | 151.87527 | 654 ft | 126 kts | 14° |
| 2026-05-01 11:22 | -32.82191 | 151.87231 | 637 ft | 140 kts | 317° |
| 2026-05-01 11:22 | -32.81603 | 151.86288 | 436 ft | 138 kts | 306° |
| 2026-05-01 11:22 | -32.80999 | 151.85440 | 186 ft | 133 kts | 313° |
| 2026-05-01 11:22 | -32.80480 | 151.84724 | 151 ft | 97 kts | 312° |
| 2026-05-01 11:23 | -32.80093 | 151.84185 | 90 ft | 74 kts | 312° |
| 2026-05-01 11:23 | -32.79790 | 151.83742 | 49 ft | 68 kts | 314° |
| 2026-05-01 11:23 | -32.79564 | 151.83448 | 31 ft | 8 kts | 298° |
| 2026-05-01 11:23 | -32.79564 | 151.83462 | 31 ft | 6 kts | 129° |
| 2026-05-01 11:24 | -32.79612 | 151.83526 | 31 ft | 14 kts | 129° |
| 2026-05-01 11:24 | -32.79688 | 151.83621 | 31 ft | 13 kts | 124° |
| 2026-05-01 11:24 | -32.79820 | 151.83921 | 64 ft | 16 kts | 59° |
| 2026-05-01 11:25 | -32.79758 | 151.84019 | 31 ft | 11 kts | 58° |
| 2026-05-01 11:25 | -32.79742 | 151.84181 | 31 ft | 13 kts | 155° |
| 2026-05-01 11:25 | -32.79782 | 151.84222 | 31 ft | 4 kts | 101° |
| 2026-05-01 11:26 | -32.79778 | 151.84236 | 31 ft | 0 kts | 49° |
| 2026-05-01 11:26 | -32.79774 | 151.84243 | 31 ft | 0 kts | 54° |